Rehoboth Beach, DE

5:19 PM EST on February 10, 2016 (GMT -0500)
Rehoboth Beach | | Change Station
CLOSE
Current Station
Personal Weather Station
Location: Rehoboth Beach, DE
Elevation: 52 ft
Nearby Weather Stations

Elev 52 ft 38.72 °N, 75.09 °W | Updated 4 seconds ago

Partly Cloudy
Partly Cloudy
34.5 °F
Feels Like 34 °F
N
0.0
Wind Variable Wind from NW
Gusts 4.0 mph

Today
High -- | Low -- °F
--% Chance of Precip.
Yesterday
High -- | Low -- °F
Precip. -- in
Pressure 29.79 in
Visibility 10.0 miles
Clouds Few 5500 ft
Windchill 34 °F
Dew Point 25 °F
Humidity 67%
Rainfall 0.00 in
Snow Depth Not available.
6:57 AM 5:31 PM
Waxing Crescent, 7% visible
METAR KGED 102154Z AUTO 30004KT 10SM FEW055 02/M07 A2979 RMK AO2 SLP088 T00221072
Pressure 29.79 in
Visibility 10.0 miles
Clouds Few 5500 ft
Windchill 34 °F
Dew Point 25 °F
Humidity 67%
Rainfall 0.00 in
Snow Depth Not available.
6:57 AM 5:31 PM
Waxing Crescent, 7% visible
METAR KGED 102154Z AUTO 30004KT 10SM FEW055 02/M07 A2979 RMK AO2 SLP088 T00221072

10-Day Weather Forecast

Almanac

Astronomy

Feb. 10, 2016 Rise Set
Actual Time
Civil Twilight
Nautical Twilight
Astronomical Twilight
Moon
Length of Visible Light
Length of Day
Tomorrow will be .
, % of the Moon is Illuminated

Today's Extremes

State Highs State Lows

Community

WunderPhotos

Upload Photos

1,891,956 photos uploaded!

WunderBlog® & News

Nearby

Air Quality

  Air Quality AQ Index Pollutant
Not available.

Snow Depth

Station Depth Elevation

Earthquake Activity

City Distance Mag. Time & Date
Minimum magnitude displayed is 2.5.

Coastal Water Temperatures

Place Temperature

Stations

Nearby Weather Stations

Station Location Temp. Windchill Dew Point Humidity Wind Precip. Elev Updated Type
                   

Watches & Warnings

There are currently no watches in effect.